createdAt,value
2022-11-09T00:07:47.835Z,7.30
2022-11-09T00:12:43.880Z,7.30
2022-11-09T00:15:11.997Z,7.10
2022-11-09T00:34:55.681Z,7.40
2022-11-09T00:37:23.271Z,6.60
2022-11-09T00:47:14.422Z,7.00
2022-11-09T00:52:09.516Z,6.70
2022-11-09T00:54:37.870Z,7.20
2022-11-09T00:57:05.524Z,7.50
2022-11-09T01:06:56.114Z,6.90
2022-11-09T01:09:23.636Z,7.30
2022-11-09T01:16:46.689Z,7.20
2022-11-09T01:26:38.068Z,10.50
2022-11-09T01:34:00.788Z,7.70
2022-11-09T01:36:28.192Z,7.60
2022-11-09T01:38:55.961Z,7.50
2022-11-09T01:41:27.456Z,7.30
2022-11-09T01:44:18.742Z,7.40
2022-11-09T01:46:53.935Z,7.40
2022-11-09T01:49:33.112Z,7.80
2022-11-09T01:52:06.405Z,7.80
2022-11-09T01:54:40.688Z,7.40
2022-11-09T01:57:20.564Z,7.40
2022-11-09T01:59:58.909Z,7.90
2022-11-09T02:02:26.638Z,7.00
2022-11-09T02:05:07.362Z,7.40
2022-11-09T02:07:35.520Z,7.00
2022-11-09T02:10:10.724Z,7.50
2022-11-09T02:15:09.168Z,7.40
2022-11-09T02:17:37.193Z,7.40
2022-11-09T02:20:11.381Z,7.40
2022-11-09T02:22:39.213Z,7.40
2022-11-09T02:25:07.221Z,7.00
2022-11-09T02:27:35.608Z,7.40
2022-11-09T02:30:04.917Z,7.50
2022-11-09T02:32:36.825Z,7.40
2022-11-09T02:35:07.056Z,7.40
2022-11-09T02:37:40.289Z,7.40
2022-11-09T02:40:16.521Z,7.40
2022-11-09T02:50:14.338Z,7.50
2022-11-09T02:57:42.747Z,7.30
2022-11-09T03:00:13.936Z,7.50
2022-11-09T03:02:43.250Z,7.50
2022-11-09T03:05:13.725Z,7.50
2022-11-09T03:07:43.585Z,7.50
2022-11-09T03:10:13.324Z,7.50
2022-11-09T03:12:43.112Z,7.10
2022-11-09T03:15:11.948Z,7.80
2022-11-09T03:17:40.902Z,7.10
2022-11-09T03:20:09.927Z,7.60
2022-11-09T03:25:09.479Z,7.50
2022-11-09T03:27:40.045Z,7.30
2022-11-09T03:30:10.708Z,7.80
2022-11-09T03:40:14.948Z,8.00
2022-11-09T03:42:47.203Z,8.00
2022-11-09T03:45:18.612Z,7.70
2022-11-09T03:47:48.529Z,7.80
2022-11-09T03:50:20.000Z,7.80
2022-11-09T03:52:51.312Z,7.80
2022-11-09T03:55:22.177Z,7.40
2022-11-09T04:00:23.294Z,7.70
2022-11-09T04:02:52.529Z,7.90
2022-11-09T04:05:24.356Z,11.10
2022-11-09T04:07:57.587Z,7.60
2022-11-09T04:10:30.433Z,8.00
2022-11-09T04:15:29.114Z,8.00
2022-11-09T04:18:01.494Z,8.00
2022-11-09T04:20:34.436Z,8.10
2022-11-09T04:23:08.370Z,8.00
2022-11-09T04:25:40.752Z,8.00
2022-11-09T04:28:12.740Z,8.10
2022-11-09T04:30:42.274Z,8.10
2022-11-09T04:35:44.146Z,8.10
2022-11-09T04:38:15.876Z,8.10
2022-11-09T04:40:47.106Z,8.10
2022-11-09T04:43:17.305Z,8.10
2022-11-09T04:45:48.848Z,8.10
2022-11-09T04:48:19.464Z,8.10
2022-11-09T04:50:53.138Z,8.10
2022-11-09T04:53:22.789Z,8.10
2022-11-09T04:55:51.800Z,6.90
2022-11-09T04:58:24.809Z,8.20
2022-11-09T05:00:54.689Z,8.20
2022-11-09T05:03:24.302Z,8.20
2022-11-09T05:08:22.639Z,8.20
2022-11-09T05:10:51.433Z,8.20
2022-11-09T05:15:49.734Z,8.30
2022-11-09T05:20:51.257Z,8.30
2022-11-09T05:28:34.632Z,8.80
2022-11-09T05:33:32.707Z,8.40
2022-11-09T05:38:32.216Z,8.50
2022-11-09T05:43:29.425Z,8.50
2022-11-09T05:46:02.482Z,8.00
2022-11-09T05:48:34.594Z,8.20
2022-11-09T05:51:06.096Z,8.60
2022-11-09T05:53:35.593Z,8.50
2022-11-09T05:56:08.684Z,8.80
2022-11-09T05:58:40.232Z,8.70
2022-11-09T06:01:12.486Z,8.70
2022-11-09T06:03:45.586Z,8.70
2022-11-09T06:06:17.935Z,9.00
2022-11-09T06:08:47.763Z,8.70
2022-11-09T06:13:53.827Z,8.70
2022-11-09T06:16:24.054Z,8.30
2022-11-09T06:18:54.891Z,8.70
2022-11-09T06:21:25.091Z,9.10
2022-11-09T06:23:55.036Z,8.20
2022-11-09T06:28:55.768Z,8.80
2022-11-09T06:33:55.074Z,8.70
2022-11-09T06:38:54.621Z,9.60
2022-11-09T06:41:25.381Z,8.70
2022-11-09T06:46:28.126Z,8.70
2022-11-09T06:49:00.870Z,8.70
2022-11-09T06:51:31.649Z,8.70
2022-11-09T06:56:31.848Z,8.70
2022-11-09T06:59:02.283Z,8.60
2022-11-09T07:01:32.566Z,8.80
2022-11-09T07:04:03.426Z,8.50
2022-11-09T07:09:02.522Z,8.80
2022-11-09T07:11:32.435Z,8.80
2022-11-09T07:14:04.638Z,8.80
2022-11-09T07:16:34.767Z,8.60
2022-11-09T07:19:05.512Z,9.80
2022-11-09T07:21:36.522Z,8.90
2022-11-09T07:26:36.908Z,8.90
2022-11-09T07:29:05.732Z,9.10
2022-11-09T07:34:06.252Z,8.90
2022-11-09T07:39:09.619Z,9.20
2022-11-09T07:44:10.709Z,9.00
2022-11-09T07:46:41.497Z,5.30
2022-11-09T07:49:11.316Z,8.90
2022-11-09T07:51:41.806Z,8.90
2022-11-09T07:54:13.129Z,8.90
2022-11-09T07:56:44.328Z,8.90
2022-11-09T07:59:18.909Z,8.90
2022-11-09T08:04:18.546Z,8.50
2022-11-09T08:09:15.906Z,8.90
2022-11-09T08:11:43.332Z,8.50
2022-11-09T08:21:38.376Z,9.00
2022-11-09T08:43:51.330Z,9.20
2022-11-09T08:51:15.795Z,8.80
2022-11-09T08:53:43.231Z,9.00
2022-11-09T09:01:13.888Z,9.00
2022-11-09T09:08:40.178Z,9.00
2022-11-09T09:16:14.289Z,9.00
2022-11-09T09:21:10.975Z,9.10
2022-11-09T09:31:05.716Z,9.10
2022-11-09T09:38:29.983Z,9.20
2022-11-09T09:41:01.073Z,9.30
2022-11-09T09:43:42.723Z,9.00
2022-11-09T09:46:32.565Z,9.00
2022-11-09T09:49:08.074Z,9.10
2022-11-09T09:51:41.197Z,9.10
2022-11-09T09:54:22.845Z,9.10
2022-11-09T09:56:53.221Z,9.10
2022-11-09T09:59:48.473Z,9.10
2022-11-09T10:02:32.314Z,9.60
2022-11-09T10:05:07.069Z,9.10
2022-11-09T10:07:47.217Z,9.10
2022-11-09T10:10:37.614Z,9.00
2022-11-09T10:13:35.886Z,9.00
2022-11-09T10:16:27.968Z,9.10
2022-11-09T10:19:22.628Z,9.00
2022-11-09T10:22:00.911Z,9.00
2022-11-09T10:27:52.141Z,9.00
2022-11-09T10:30:21.561Z,9.20
2022-11-09T10:32:52.800Z,9.10
2022-11-09T10:35:30.786Z,9.10
2022-11-09T10:40:39.138Z,9.10
2022-11-09T10:43:11.540Z,9.10
2022-11-09T10:45:41.995Z,9.20
2022-11-09T10:48:11.729Z,9.10
2022-11-09T10:50:55.973Z,9.10
2022-11-09T10:53:25.703Z,9.20
2022-11-09T10:55:56.956Z,9.20
2022-11-09T10:58:33.278Z,9.20
2022-11-09T11:01:14.260Z,9.20
2022-11-09T11:03:43.492Z,9.20
2022-11-09T11:06:27.283Z,9.20
2022-11-09T11:09:16.557Z,9.20
2022-11-09T11:14:28.186Z,9.20
2022-11-09T11:19:32.147Z,9.10
2022-11-09T11:22:19.940Z,9.20
2022-11-09T11:24:57.438Z,9.20
2022-11-09T11:27:45.804Z,9.20
2022-11-09T11:30:23.133Z,9.20
2022-11-09T11:32:54.310Z,9.40
2022-11-09T11:35:38.974Z,9.20
2022-11-09T11:38:23.681Z,9.20
2022-11-09T11:41:11.267Z,9.20
2022-11-09T11:43:57.101Z,9.40
2022-11-09T11:46:48.594Z,9.20
2022-11-09T11:49:42.384Z,8.80
2022-11-09T11:52:26.259Z,9.30
2022-11-09T11:55:06.013Z,9.30
2022-11-09T11:57:52.513Z,9.20
2022-11-09T12:00:21.294Z,9.30
2022-11-09T12:03:08.603Z,9.20
2022-11-09T12:06:09.450Z,9.20
2022-11-09T12:09:00.571Z,9.30
2022-11-09T12:11:43.309Z,9.30
2022-11-09T12:14:33.090Z,9.30
2022-11-09T12:17:20.338Z,9.40
2022-11-09T12:20:18.993Z,9.30
2022-11-09T12:23:17.702Z,9.30
2022-11-09T12:26:04.450Z,9.30
2022-11-09T12:29:01.069Z,8.90
2022-11-09T12:31:50.740Z,9.40
2022-11-09T12:34:27.917Z,9.30
2022-11-09T12:37:08.055Z,9.40
2022-11-09T12:39:42.203Z,9.40
2022-11-09T12:42:30.164Z,9.40
2022-11-09T12:45:08.039Z,9.40
2022-11-09T12:47:41.668Z,9.30
2022-11-09T12:50:25.827Z,9.80
2022-11-09T12:55:30.178Z,9.00
2022-11-09T13:00:49.703Z,9.80
2022-11-09T13:03:24.526Z,9.50
2022-11-09T13:06:20.203Z,9.50
2022-11-09T13:09:07.879Z,9.50
2022-11-09T13:11:47.042Z,8.40
2022-11-09T13:14:36.901Z,9.00
2022-11-09T13:17:40.668Z,9.50
2022-11-09T13:20:56.594Z,9.50
2022-11-09T13:26:56.300Z,9.50
2022-11-09T13:29:52.300Z,9.70
2022-11-09T13:32:28.486Z,9.50
2022-11-09T13:34:57.789Z,9.20
2022-11-09T13:37:48.361Z,9.50
2022-11-09T13:40:41.098Z,9.50
2022-11-09T13:43:32.325Z,9.50
2022-11-09T13:46:03.288Z,9.50
2022-11-09T13:48:47.079Z,9.50
2022-11-09T13:51:18.649Z,9.50
2022-11-09T13:54:03.248Z,9.80
2022-11-09T13:56:40.211Z,9.40
2022-11-09T13:59:25.692Z,9.20
2022-11-09T14:01:56.640Z,9.40
2022-11-09T14:04:30.871Z,9.80
2022-11-09T14:07:23.929Z,9.60
2022-11-09T14:10:16.642Z,10.30
2022-11-09T14:13:00.266Z,9.60
2022-11-09T14:15:55.932Z,9.60
2022-11-09T14:18:52.304Z,9.60
2022-11-09T14:21:47.609Z,9.90
2022-11-09T14:24:19.928Z,9.60
2022-11-09T14:27:12.721Z,9.70
2022-11-09T14:29:56.996Z,9.70
2022-11-09T14:32:33.127Z,9.70
2022-11-09T14:35:31.238Z,9.70
2022-11-09T14:38:01.919Z,9.70
2022-11-09T14:40:32.160Z,9.70
2022-11-09T14:43:17.662Z,9.70
2022-11-09T14:45:55.119Z,9.70
2022-11-09T14:48:24.764Z,9.70
2022-11-09T14:50:55.468Z,9.80
2022-11-09T14:53:28.684Z,9.80
2022-11-09T14:55:59.938Z,9.70
2022-11-09T14:58:30.655Z,9.00
2022-11-09T15:01:21.938Z,9.70
2022-11-09T15:04:08.174Z,9.70
2022-11-09T15:06:36.489Z,9.70
2022-11-09T15:09:08.850Z,9.80
2022-11-09T15:11:40.170Z,9.70
2022-11-09T15:14:25.710Z,9.80
2022-11-09T15:17:07.179Z,9.80
2022-11-09T15:19:47.731Z,9.80
2022-11-09T15:22:44.433Z,9.70
2022-11-09T15:25:41.658Z,9.90
2022-11-09T15:28:26.925Z,9.80
2022-11-09T15:31:13.668Z,10.30
2022-11-09T15:33:52.404Z,9.80
2022-11-09T15:36:28.798Z,9.90
2022-11-09T15:39:04.715Z,9.80
2022-11-09T15:46:34.827Z,9.90
2022-11-09T15:49:15.741Z,9.80
2022-11-09T15:51:44.808Z,9.90
2022-11-09T15:56:40.573Z,9.60
2022-11-09T15:59:15.509Z,9.90
2022-11-09T16:06:42.468Z,9.80
2022-11-09T16:09:13.009Z,9.60
2022-11-09T16:39:20.349Z,10.00
2022-11-09T16:41:50.347Z,10.00
2022-11-09T16:44:21.665Z,10.10
2022-11-09T16:46:49.186Z,10.70
2022-11-09T17:06:34.251Z,9.80
2022-11-09T17:09:03.531Z,10.20
2022-11-09T17:14:00.453Z,10.20
2022-11-09T17:16:31.038Z,10.10
2022-11-09T17:19:00.679Z,10.20
2022-11-09T17:21:31.721Z,10.30
2022-11-09T17:24:02.336Z,10.40
2022-11-09T17:26:33.615Z,10.30
2022-11-09T17:29:05.034Z,10.20
2022-11-09T17:31:36.345Z,10.20
2022-11-09T17:34:05.626Z,10.00
2022-11-09T17:37:02.492Z,10.20
2022-11-09T17:39:23.399Z,10.30
2022-11-09T17:46:47.997Z,10.40
2022-11-09T18:04:11.388Z,10.30
2022-11-09T18:14:25.592Z,9.90
2022-11-09T18:19:22.463Z,10.10
2022-11-09T18:24:18.152Z,10.40
2022-11-09T18:34:11.898Z,10.20
2022-11-09T18:49:11.522Z,10.60
2022-11-09T18:54:16.195Z,10.20
2022-11-09T18:59:15.292Z,10.20
2022-11-09T19:04:17.124Z,10.20
2022-11-09T19:12:09.858Z,10.20
2022-11-09T19:14:41.776Z,10.20
2022-11-09T19:17:16.003Z,10.20
2022-11-09T19:19:44.185Z,9.70
2022-11-09T19:22:17.622Z,10.20
2022-11-09T19:24:48.069Z,10.40
2022-11-09T19:27:16.520Z,10.00
2022-11-09T19:29:45.351Z,10.20
2022-11-09T19:32:15.449Z,10.20
2022-11-09T19:39:47.878Z,13.10
2022-11-09T19:42:16.977Z,10.10
2022-11-09T19:47:16.370Z,10.10
2022-11-09T19:49:47.646Z,10.00
2022-11-09T19:52:17.709Z,10.10
2022-11-09T20:07:14.979Z,10.30
2022-11-09T20:09:44.283Z,10.20
2022-11-09T20:12:29.308Z,10.00
2022-11-09T20:14:59.193Z,10.00
2022-11-09T20:17:28.154Z,10.00
2022-11-09T20:19:57.846Z,10.00
2022-11-09T20:22:29.956Z,10.00
2022-11-09T20:30:01.811Z,10.00
2022-11-09T20:32:33.205Z,10.30
2022-11-09T20:42:29.834Z,10.10
2022-11-09T20:47:57.141Z,10.10
2022-11-09T20:52:48.156Z,9.80
2022-11-09T20:55:17.311Z,9.80
2022-11-09T21:00:14.421Z,9.80
2022-11-09T21:02:43.554Z,10.10
2022-11-09T21:07:44.214Z,9.80
2022-11-09T21:12:40.426Z,9.40
2022-11-09T21:20:10.197Z,9.70
2022-11-09T21:33:19.795Z,9.70
2022-11-09T21:35:48.619Z,9.40
2022-11-09T21:38:16.876Z,9.40
2022-11-09T21:53:08.274Z,10.30
2022-11-09T21:58:03.525Z,9.90
2022-11-09T22:18:34.194Z,9.60
2022-11-09T22:26:02.266Z,9.70
2022-11-09T22:31:01.172Z,9.70
2022-11-09T22:33:31.760Z,9.70
2022-11-09T22:36:03.160Z,9.80
2022-11-09T22:38:33.575Z,9.90
2022-11-09T22:41:03.113Z,9.70
2022-11-09T22:43:35.032Z,9.70
2022-11-09T22:46:04.383Z,9.70
2022-11-09T22:48:33.842Z,9.70
2022-11-09T22:51:01.807Z,10.10
2022-11-09T22:55:59.650Z,9.70
2022-11-09T22:58:27.636Z,9.70
2022-11-09T23:08:19.305Z,9.80
2022-11-09T23:10:55.340Z,9.70
2022-11-09T23:15:56.200Z,9.70
2022-11-09T23:26:03.441Z,10.10
2022-11-09T23:28:31.985Z,9.70
2022-11-09T23:31:01.374Z,11.90
2022-11-09T23:33:29.422Z,9.70
2022-11-09T23:35:57.826Z,9.60
2022-11-09T23:40:53.203Z,9.70
2022-11-09T23:48:18.954Z,9.70
2022-11-09T23:50:48.251Z,9.80
2022-11-09T23:55:43.360Z,9.20
